Potash Bay, Vermont
Current Conditions -  °F | °C
As of 7:35 AM on Sunday 21 Dec 2014 (Local Time) from K6B0 Reporting Station
Haze Haze  
Wind Chill: 20°   Ceiling: 3400
Heat Index: 20°   Visibility: 5mi
Dew Point: 20°   Wind: 0mph
Humidity: 100%   Direction: NA
Pressure: 30.32"   Gusts: NA
Location:  44.0804°N, 73.3324°W
Report Text: K6B0 211235Z AUTO 00000KT 5SM BR OVC034 M07/M07 A3032 RMK AO2 T10671067
Loading
Personal Weather Stations






























Interactive Weather Map New forecast layout! Learn more

10-Day Weather Forecast

Advertisements
Track Severe Weather on mobile